Time;durP1;ratioP1;P1;durP2;ratioP2;P2;SDS_P1;SDS_P2;PMS_P1;PMS_P2;Temp;Humidity;BMP_temperature;BMP_pressure;BME280_temperature;BME280_humidity;BME280_pressure;Samples;Min_cycle;Max_cycle;Signal;HPM_P1;HPM_P2
2022/04/19 00:01:10;;;;;;;3.42;0.98;;;7.10;99.90;;;;;;4974946;28;20067;-73
2022/04/19 00:03:37;;;;;;;3.80;1.13;;;7.10;99.90;;;;;;4974605;28;20055;-72
2022/04/19 00:06:04;;;;;;;8.48;1.35;;;7.10;99.90;;;;;;4974708;28;20031;-72
2022/04/19 00:08:29;;;;;;;1.15;1.05;;;7.00;99.90;;;;;;4974560;28;20027;-72
2022/04/19 00:10:55;;;;;;;3.25;0.98;;;6.90;99.90;;;;;;4974561;28;20034;-73
2022/04/19 00:13:21;;;;;;;7.80;1.08;;;6.80;99.90;;;;;;4974468;28;20031;-73
2022/04/19 00:15:47;;;;;;;2.25;1.15;;;6.80;99.90;;;;;;4974414;28;20110;-73
2022/04/19 00:18:14;;;;;;;1.75;0.90;;;6.80;99.90;;;;;;4974503;28;20210;-73
2022/04/19 00:20:42;;;;;;;0.90;0.90;;;6.90;99.90;;;;;;4973996;28;20031;-73
2022/04/19 00:23:15;;;;;;;3.63;1.00;;;6.80;99.90;;;;;;4974247;28;20019;-73
2022/04/19 00:25:45;;;;;;;1.33;1.00;;;6.80;99.90;;;;;;4974266;28;20529;-74
2022/04/19 00:28:12;;;;;;;1.38;1.10;;;6.70;99.90;;;;;;4974528;28;20035;-73
2022/04/19 00:30:39;;;;;;;1.80;1.10;;;6.70;99.90;;;;;;4974073;28;20035;-73
2022/04/19 00:33:05;;;;;;;1.10;1.00;;;6.70;99.90;;;;;;4974171;28;20574;-73
2022/04/19 00:35:31;;;;;;;2.13;1.08;;;6.70;99.90;;;;;;4974149;28;20102;-73
2022/04/19 00:37:58;;;;;;;1.17;0.90;;;6.70;99.90;;;;;;4973896;28;20122;-69
2022/04/19 00:40:24;;;;;;;1.48;1.10;;;6.70;99.90;;;;;;4974113;28;20026;-70
2022/04/19 00:42:51;;;;;;;2.65;1.25;;;6.70;99.90;;;;;;4974117;28;20027;-70
2022/04/19 00:45:16;;;;;;;5.25;1.10;;;6.70;99.90;;;;;;4974314;28;20027;-69
2022/04/19 00:47:42;;;;;;;1.77;1.10;;;6.60;99.90;;;;;;4972757;28;20524;-69
2022/04/19 00:50:09;;;;;;;1.67;1.20;;;6.60;99.90;;;;;;4974231;28;20023;-69
2022/04/19 00:52:37;;;;;;;1.48;1.10;;;6.60;99.90;;;;;;4974160;28;20027;-69
2022/04/19 00:55:04;;;;;;;1.77;1.15;;;6.50;99.90;;;;;;4973818;28;20033;-69
2022/04/19 00:57:30;;;;;;;2.60;1.20;;;6.40;99.90;;;;;;4973822;28;20030;-69
2022/04/19 00:59:57;;;;;;;1.33;1.10;;;6.40;99.90;;;;;;4973956;28;20487;-69
2022/04/19 01:02:24;;;;;;;1.67;1.10;;;6.40;99.90;;;;;;4973678;28;20442;-69
2022/04/19 01:04:50;;;;;;;1.63;1.17;;;6.30;99.90;;;;;;4973655;28;20027;-69
2022/04/19 01:07:20;;;;;;;3.15;1.20;;;6.20;99.90;;;;;;4973871;28;20045;-69
2022/04/19 01:09:46;;;;;;;1.30;1.20;;;6.10;99.90;;;;;;4973561;28;20057;-69
2022/04/19 01:15:08;;;;;;;1.17;1.08;;;5.70;99.90;;;;;;4973762;28;20025;-69
2022/04/19 01:17:39;;;;;;;2.75;1.25;;;5.60;99.90;;;;;;4973289;28;20030;-69
2022/04/19 01:20:07;;;;;;;2.63;1.08;;;5.60;99.90;;;;;;4973429;28;20509;-69
2022/04/19 01:22:43;;;;;;;2.05;1.20;;;5.70;99.90;;;;;;4973281;28;20046;-69
2022/04/19 01:25:10;;;;;;;1.30;1.00;;;5.80;99.90;;;;;;4973342;28;20050;-69
2022/04/19 01:27:36;;;;;;;3.72;1.27;;;5.90;99.90;;;;;;4973507;28;20038;-69
2022/04/19 01:30:08;;;;;;;1.98;1.30;;;5.90;99.90;;;;;;4973315;28;20026;-69
2022/04/19 01:32:35;;;;;;;13.48;1.58;;;5.90;99.90;;;;;;4973130;28;20460;-69
2022/04/19 01:35:12;;;;;;;13.30;1.65;;;5.90;99.90;;;;;;4973067;28;20482;-69
2022/04/19 01:37:40;;;;;;;14.75;1.50;;;5.80;99.90;;;;;;4972669;28;20113;-69
2022/04/19 01:40:19;;;;;;;13.18;1.60;;;5.80;99.90;;;;;;4973144;28;20086;-69
2022/04/19 01:42:46;;;;;;;5.82;1.65;;;5.90;99.90;;;;;;4973012;28;20031;-70
2022/04/19 01:45:13;;;;;;;10.30;1.60;;;5.90;99.90;;;;;;4973146;28;20062;-69
2022/04/19 01:47:43;;;;;;;47.05;3.45;;;5.90;99.90;;;;;;4973170;28;20089;-69
2022/04/19 01:50:10;;;;;;;5.95;1.50;;;5.80;99.90;;;;;;4973115;28;20030;-69
2022/04/19 01:52:40;;;;;;;8.50;1.60;;;5.70;99.90;;;;;;4973249;28;20031;-69
2022/04/19 01:55:07;;;;;;;6.50;1.45;;;5.70;99.90;;;;;;4973351;28;20431;-69
2022/04/19 01:57:33;;;;;;;8.25;1.63;;;5.80;99.90;;;;;;4972902;28;20495;-69
2022/04/19 01:59:59;;;;;;;7.10;1.30;;;5.70;99.90;;;;;;4972827;28;20031;-69
2022/04/19 02:02:25;;;;;;;3.08;1.20;;;5.70;99.90;;;;;;4972804;28;20039;-69
2022/04/19 02:04:51;;;;;;;5.03;1.33;;;5.70;99.90;;;;;;4972818;28;20019;-69
2022/04/19 02:07:17;;;;;;;4.50;1.48;;;5.70;99.90;;;;;;4972830;28;20113;-69
2022/04/19 02:09:42;;;;;;;1.40;1.30;;;5.70;99.90;;;;;;4973024;28;20044;-69
2022/04/19 02:12:09;;;;;;;5.88;1.30;;;5.70;99.90;;;;;;4972883;28;20023;-69
2022/04/19 02:14:35;;;;;;;3.72;1.17;;;5.70;99.90;;;;;;4972856;28;20109;-70
2022/04/19 02:17:00;;;;;;;1.88;1.20;;;5.60;99.90;;;;;;4972956;28;20118;-69
2022/04/19 02:19:26;;;;;;;4.85;1.30;;;5.50;99.90;;;;;;4973098;28;20089;-70
2022/04/19 02:21:52;;;;;;;2.55;1.30;;;5.50;99.90;;;;;;4973038;28;20441;-70
2022/04/19 02:53:40;;;;;;;4.68;1.40;;;5.30;99.90;;;;;;4978997;28;20043;-70
2022/04/19 02:56:06;;;;;;;2.00;1.42;;;5.30;99.90;;;;;;4975825;28;20494;-70
2022/04/19 02:58:32;;;;;;;1.80;1.58;;;5.30;99.90;;;;;;4975776;28;20031;-70
2022/04/19 03:00:59;;;;;;;1.42;1.30;;;5.30;99.90;;;;;;4975927;28;20041;-69
2022/04/19 03:37:04;;;;;;;2.28;1.50;;;4.90;99.90;;;;;;5758641;23;20059;-79
2022/04/19 03:39:30;;;;;;;2.13;1.20;;;4.90;99.90;;;;;;4955786;29;20482;-80
2022/04/19 03:41:57;;;;;;;6.07;1.40;;;4.90;99.90;;;;;;4957653;29;20035;-80
2022/04/19 03:44:25;;;;;;;1.70;1.30;;;4.80;99.90;;;;;;4959239;29;20077;-80
2022/04/19 03:47:07;;;;;;;4.75;1.33;;;4.90;99.90;;;;;;4958726;29;20170;-81
2022/04/19 03:49:34;;;;;;;3.47;1.83;;;4.90;99.90;;;;;;4956081;29;20061;-81
2022/04/19 03:52:01;;;;;;;3.45;2.20;;;5.00;99.90;;;;;;4955538;29;20035;-82
2022/04/19 03:54:26;;;;;;;8.38;1.52;;;5.00;99.90;;;;;;4955860;29;20367;-82
2022/04/19 03:56:52;;;;;;;1.63;1.30;;;4.90;99.90;;;;;;4937222;29;20030;-80
2022/04/19 03:59:18;;;;;;;3.00;1.42;;;4.70;99.90;;;;;;4955602;29;20136;-80
2022/04/19 04:01:44;;;;;;;5.00;1.60;;;4.70;99.90;;;;;;4955802;29;20478;-81
2022/04/19 04:04:10;;;;;;;6.05;1.65;;;4.60;99.90;;;;;;4955909;29;20102;-78
2022/04/19 04:06:37;;;;;;;2.35;1.50;;;4.60;99.90;;;;;;4955467;29;20486;-78
2022/04/19 04:09:03;;;;;;;3.03;1.77;;;4.60;99.90;;;;;;4955130;29;20478;-78
2022/04/19 04:11:29;;;;;;;2.00;1.67;;;4.70;99.90;;;;;;4955597;29;20027;-77
2022/04/19 04:13:55;;;;;;;2.35;1.50;;;4.80;99.90;;;;;;4955312;29;20497;-78
2022/04/19 04:16:21;;;;;;;3.95;1.73;;;5.10;99.90;;;;;;4955225;29;20545;-79
2022/04/19 04:18:47;;;;;;;1.98;1.60;;;5.30;99.90;;;;;;4955007;29;20023;-81
2022/04/19 04:21:12;;;;;;;2.88;1.50;;;5.60;99.90;;;;;;4937709;29;20134;-77
2022/04/19 04:23:38;;;;;;;2.38;1.80;;;5.90;99.90;;;;;;4955143;29;20027;-78
2022/04/19 04:26:04;;;;;;;3.00;1.52;;;6.20;99.90;;;;;;4954776;29;20063;-78
2022/04/19 04:28:29;;;;;;;8.48;1.67;;;6.50;99.90;;;;;;4954759;29;20031;-79
2022/04/19 04:30:55;;;;;;;7.22;1.52;;;6.80;99.90;;;;;;4954883;29;20031;-73
2022/04/19 04:33:21;;;;;;;2.30;1.58;;;7.10;99.90;;;;;;4964163;28;20069;-76
2022/04/19 04:35:47;;;;;;;1.42;1.30;;;7.40;99.90;;;;;;4974251;28;20058;-75
2022/04/19 04:38:14;;;;;;;4.07;1.48;;;7.70;99.90;;;;;;4967444;28;20046;-72
2022/04/19 04:40:40;;;;;;;2.15;1.00;;;7.90;99.90;;;;;;4972655;28;20128;-72
2022/04/19 04:43:06;;;;;;;3.08;1.10;;;9.30;99.90;;;;;;4973672;28;20041;-73
2022/04/19 04:45:32;;;;;;;3.50;1.30;;;10.80;99.90;;;;;;4973935;28;20042;-76
2022/04/19 04:50:42;;;;;;;3.05;1.40;;;10.80;96.10;;;;;;4972773;28;20119;-78
2022/04/19 04:53:08;;;;;;;19.50;1.80;;;10.50;96.30;;;;;;4972235;28;20125;-79
2022/04/19 04:55:33;;;;;;;7.13;1.38;;;10.30;95.80;;;;;;4971396;28;20050;-75
2022/04/19 04:58:01;;;;;;;1.75;1.25;;;10.30;96.20;;;;;;4969551;28;20537;-73
2022/04/19 05:00:27;;;;;;;1.33;1.10;;;10.30;96.10;;;;;;4972455;28;20106;-73
2022/04/19 05:02:54;;;;;;;6.07;1.48;;;10.30;95.60;;;;;;4972609;28;20050;-73
2022/04/19 05:05:19;;;;;;;6.93;1.20;;;10.50;94.70;;;;;;4968692;28;20640;-73
2022/04/19 05:07:46;;;;;;;1.58;1.10;;;10.60;94.00;;;;;;4968655;28;20122;-73
2022/04/19 05:10:11;;;;;;;1.85;1.10;;;10.70;93.40;;;;;;4972327;28;20026;-73
2022/04/19 05:12:37;;;;;;;2.38;1.52;;;10.80;93.10;;;;;;4971109;28;20029;-73
2022/04/19 05:15:04;;;;;;;2.95;1.27;;;11.00;92.70;;;;;;4950138;29;20093;-78
2022/04/19 05:17:30;;;;;;;5.05;1.45;;;11.30;91.60;;;;;;4954173;28;20419;-74
2022/04/19 05:19:58;;;;;;;6.00;1.20;;;12.50;99.90;;;;;;4954305;29;20028;-73
2022/04/19 05:22:24;;;;;;;7.68;1.20;;;13.40;90.30;;;;;;4954122;28;20045;-80
2022/04/19 05:24:50;;;;;;;17.15;1.88;;;13.20;82.80;;;;;;4954599;29;20102;-81
2022/04/19 05:27:15;;;;;;;8.05;1.67;;;13.10;81.30;;;;;;4953871;28;20474;-88
2022/04/19 05:29:41;;;;;;;10.90;1.50;;;13.10;80.10;;;;;;4954106;29;20111;-76
2022/04/19 05:32:07;;;;;;;9.85;1.48;;;13.20;79.00;;;;;;4953817;29;20034;-76
2022/04/19 05:34:33;;;;;;;6.75;2.08;;;13.20;78.50;;;;;;4953949;29;20474;-76
2022/04/19 05:36:59;;;;;;;6.40;1.10;;;13.30;77.70;;;;;;4953750;28;20058;-75
2022/04/19 05:39:24;;;;;;;9.63;1.58;;;13.40;77.10;;;;;;4953703;29;20447;-76
2022/04/19 05:41:50;;;;;;;8.05;1.10;;;13.60;76.20;;;;;;4953879;29;20035;-76
2022/04/19 05:44:16;;;;;;;15.98;1.80;;;13.80;75.20;;;;;;4953636;29;20029;-76
2022/04/19 05:46:41;;;;;;;9.40;1.30;;;13.80;74.30;;;;;;4953825;29;20121;-76
2022/04/19 05:49:07;;;;;;;73.38;3.33;;;14.00;74.20;;;;;;4953705;29;20475;-76
2022/04/19 05:51:34;;;;;;;45.25;3.08;;;14.30;73.30;;;;;;4953689;29;20027;-79
2022/04/19 05:53:59;;;;;;;21.75;2.63;;;14.50;73.30;;;;;;4953796;29;20075;-75
2022/04/19 05:56:25;;;;;;;27.95;2.40;;;14.70;73.00;;;;;;4953771;29;20035;-74
2022/04/19 05:58:51;;;;;;;34.00;2.65;;;14.90;71.90;;;;;;4936395;29;20599;-76
2022/04/19 06:01:18;;;;;;;23.20;2.40;;;15.10;72.70;;;;;;4953546;29;20050;-72
2022/04/19 06:06:28;;;;;;;28.92;3.38;;;15.00;70.20;;;;;;4953981;29;20094;-74
2022/04/19 06:08:54;;;;;;;81.00;4.28;;;15.20;70.30;;;;;;4953630;29;20023;-73
2022/04/19 06:11:20;;;;;;;15.88;2.50;;;15.40;69.80;;;;;;4953550;29;20028;-73
2022/04/19 06:13:45;;;;;;;41.92;3.17;;;15.50;69.00;;;;;;4936296;29;20034;-71
2022/04/19 06:16:11;;;;;;;48.30;2.75;;;15.50;68.30;;;;;;4953625;29;20126;-71
2022/04/19 06:18:37;;;;;;;25.60;2.17;;;15.50;68.40;;;;;;4953471;28;20024;-69
2022/04/19 06:21:06;;;;;;;20.52;2.50;;;15.40;67.70;;;;;;4956563;29;20034;-71
2022/04/19 06:23:33;;;;;;;19.42;3.15;;;15.30;67.90;;;;;;4957134;29;20462;-70
2022/04/19 06:25:58;;;;;;;36.80;2.90;;;15.10;67.40;;;;;;4957214;29;20046;-74
2022/04/19 06:28:24;;;;;;;69.40;3.97;;;15.00;67.80;;;;;;4957043;29;20467;-74
2022/04/19 06:30:50;;;;;;;39.80;3.80;;;15.10;68.40;;;;;;4957241;29;20027;-71
2022/04/19 06:33:16;;;;;;;63.97;4.00;;;15.30;68.60;;;;;;4957121;29;20039;-70
2022/04/19 06:35:41;;;;;;;59.97;4.80;;;15.20;68.10;;;;;;4957131;29;20517;-71
2022/04/19 06:38:08;;;;;;;132.90;6.97;;;15.20;68.20;;;;;;4956690;28;20051;-71
2022/04/19 06:40:34;;;;;;;42.72;3.00;;;15.30;68.30;;;;;;4956805;28;20034;-72
2022/04/19 06:43:00;;;;;;;56.75;3.40;;;15.30;68.10;;;;;;4957008;29;20035;-71
2022/04/19 06:45:26;;;;;;;35.22;3.22;;;15.40;68.50;;;;;;4956887;29;20016;-68
2022/04/19 06:47:59;;;;;;;41.85;3.83;;;15.70;68.00;;;;;;4956972;29;20037;-72
2022/04/19 06:50:25;;;;;;;40.90;3.47;;;15.70;67.20;;;;;;4956617;29;20055;-72
2022/04/19 06:52:52;;;;;;;33.10;2.80;;;15.70;67.70;;;;;;4939427;29;20109;-71
2022/04/19 06:55:21;;;;;;;66.18;4.88;;;15.90;66.80;;;;;;4956611;29;20114;-73
2022/04/19 06:57:50;;;;;;;59.58;4.28;;;16.00;67.40;;;;;;4939116;29;20019;-70
2022/04/19 07:00:17;;;;;;;26.63;2.10;;;15.90;66.30;;;;;;4959902;28;20027;-72
2022/04/19 07:02:44;;;;;;;25.15;3.00;;;15.90;66.30;;;;;;4970307;28;20074;-72
2022/04/19 07:05:11;;;;;;;44.47;3.08;;;15.80;67.00;;;;;;4975601;28;20117;-71
2022/04/19 07:07:42;;;;;;;48.67;3.63;;;16.00;66.70;;;;;;4975574;28;20033;-73
2022/04/19 07:10:10;;;;;;;10.18;1.77;;;16.10;66.60;;;;;;4975702;28;20033;-73
2022/04/19 07:12:36;;;;;;;24.45;2.13;;;16.10;66.30;;;;;;4975989;28;20023;-68
2022/04/19 07:15:02;;;;;;;53.15;4.30;;;15.90;66.60;;;;;;4975110;28;20035;-68
2022/04/19 07:17:28;;;;;;;42.30;2.90;;;15.80;66.60;;;;;;4975408;28;20069;-68
2022/04/19 07:28:11;;;;;;;23.05;1.83;;;15.60;67.20;;;;;;4974908;28;20034;-69
2022/04/19 07:30:37;;;;;;;19.27;1.83;;;15.60;67.80;;;;;;4974778;28;20023;-70
2022/04/19 07:33:05;;;;;;;20.98;2.47;;;15.60;68.20;;;;;;4965547;28;20402;-69
2022/04/19 07:35:31;;;;;;;42.30;2.67;;;15.50;67.80;;;;;;4966709;28;20042;-70
2022/04/19 07:37:57;;;;;;;30.13;2.97;;;15.20;67.60;;;;;;4947846;28;20074;-69
2022/04/19 07:40:22;;;;;;;22.13;2.47;;;14.90;69.20;;;;;;4994337;28;20477;-77
2022/04/19 07:42:48;;;;;;;27.15;2.85;;;15.00;71.00;;;;;;4972220;28;20467;-72
2022/04/19 07:45:15;;;;;;;36.47;2.40;;;15.00;68.60;;;;;;4994253;28;20042;-72
2022/04/19 07:47:41;;;;;;;77.75;4.95;;;15.00;70.30;;;;;;4994171;28;20037;-71
2022/04/19 07:50:07;;;;;;;81.45;5.22;;;15.00;69.80;;;;;;4994162;28;20031;-71
2022/04/19 07:52:33;;;;;;;26.58;2.17;;;15.00;70.00;;;;;;4994620;28;20019;-71
2022/04/19 07:54:58;;;;;;;58.15;4.18;;;14.90;69.00;;;;;;4994636;28;20393;-71
2022/04/19 07:57:24;;;;;;;47.97;4.03;;;14.80;69.50;;;;;;4994078;28;20018;-71
2022/04/19 07:59:53;;;;;;;30.40;2.92;;;14.80;69.90;;;;;;4993904;28;20117;-72
2022/04/19 08:02:20;;;;;;;29.75;3.58;;;14.80;70.00;;;;;;4994363;28;20116;-71
2022/04/19 08:04:46;;;;;;;27.92;2.08;;;14.80;69.40;;;;;;4994420;28;20023;-71
2022/04/19 08:07:12;;;;;;;23.23;2.00;;;14.70;69.40;;;;;;4994084;28;20517;-71
2022/04/19 08:09:38;;;;;;;26.10;2.22;;;14.70;69.50;;;;;;4993946;28;20041;-71
2022/04/19 08:12:05;;;;;;;36.42;3.20;;;14.70;69.60;;;;;;4994137;28;20030;-71
2022/04/19 08:14:31;;;;;;;131.70;8.75;;;14.70;69.80;;;;;;4993879;28;20027;-71
2022/04/19 08:16:57;;;;;;;15.73;2.65;;;14.60;71.30;;;;;;4994062;28;20141;-71
2022/04/19 08:19:23;;;;;;;88.47;5.95;;;14.70;70.80;;;;;;4982088;28;20122;-71
2022/04/19 08:21:48;;;;;;;99.28;6.80;;;14.70;70.60;;;;;;4974312;28;20062;-71
2022/04/19 08:24:14;;;;;;;50.75;3.95;;;14.70;71.40;;;;;;4956965;28;20027;-71
2022/04/19 08:26:40;;;;;;;65.38;3.88;;;14.70;70.80;;;;;;4974289;28;20402;-71
2022/04/19 08:29:06;;;;;;;37.65;3.30;;;14.80;71.50;;;;;;4941078;28;20022;-71
2022/04/19 08:31:31;;;;;;;18.05;2.65;;;14.90;70.70;;;;;;4974096;28;20109;-72
2022/04/19 08:33:57;;;;;;;21.05;2.00;;;15.10;74.70;;;;;;4974450;28;20022;-71
2022/04/19 08:36:23;;;;;;;23.50;2.97;;;15.20;71.40;;;;;;4974159;28;20107;-71
2022/04/19 08:38:48;;;;;;;11.65;2.03;;;15.10;70.60;;;;;;4960414;28;20462;-72
2022/04/19 08:41:18;;;;;;;17.38;2.13;;;14.90;70.00;;;;;;4977190;28;20074;-72
2022/04/19 08:43:45;;;;;;;50.85;3.50;;;15.10;75.30;;;;;;4973504;28;20030;-73
2022/04/19 08:46:11;;;;;;;15.00;2.20;;;15.20;70.90;;;;;;4973764;28;20027;-73
2022/04/19 08:48:39;;;;;;;32.67;3.08;;;15.10;70.20;;;;;;4973766;28;20486;-72
2022/04/19 08:51:08;;;;;;;37.53;2.92;;;14.90;70.60;;;;;;4974179;28;20027;-72
2022/04/19 08:59:06;;;;;;;17.08;2.50;;;15.10;71.50;;;;;;4980696;28;20061;-70
2022/04/19 09:01:34;;;;;;;15.20;2.60;;;15.10;71.80;;;;;;4992925;28;20045;-69
2022/04/19 09:04:04;;;;;;;27.55;2.60;;;15.30;73.30;;;;;;4993061;28;20033;-69
2022/04/19 09:06:50;;;;;;;30.00;2.92;;;15.50;74.00;;;;;;4993304;28;20030;-70
2022/04/19 09:09:19;;;;;;;28.20;2.47;;;15.80;74.50;;;;;;4992706;28;20061;-69
2022/04/19 09:11:45;;;;;;;21.83;2.10;;;16.00;72.50;;;;;;4992859;28;20421;-70
2022/04/19 09:14:10;;;;;;;60.08;5.07;;;15.90;70.10;;;;;;4992669;28;20030;-69
2022/04/19 09:16:36;;;;;;;12.25;1.70;;;15.90;72.00;;;;;;4992869;28;20062;-69
2022/04/19 09:19:02;;;;;;;115.53;7.80;;;16.20;72.50;;;;;;4992239;28;20038;-69
2022/04/19 09:21:38;;;;;;;21.42;2.03;;;16.10;70.50;;;;;;4992357;28;20070;-69
2022/04/19 09:24:21;;;;;;;20.42;2.22;;;16.20;71.20;;;;;;4992766;28;20066;-69
2022/04/19 09:26:48;;;;;;;10.48;1.48;;;16.40;72.60;;;;;;4992857;28;20109;-69
2022/04/19 09:29:22;;;;;;;13.63;1.63;;;16.50;70.80;;;;;;4992757;28;20026;-69
2022/04/19 09:31:58;;;;;;;15.93;2.05;;;16.30;67.20;;;;;;4992601;28;20031;-69
2022/04/19 09:34:29;;;;;;;11.55;2.28;;;16.00;69.40;;;;;;4992350;28;20027;-69
2022/04/19 09:37:10;;;;;;;18.73;2.55;;;16.00;69.30;;;;;;4974795;28;20397;-69
2022/04/19 09:39:37;;;;;;;81.22;6.13;;;15.80;70.70;;;;;;4992539;28;20069;-69
2022/04/19 09:42:08;;;;;;;9.70;1.60;;;16.10;71.30;;;;;;4992439;28;20066;-69
2022/04/19 09:44:42;;;;;;;34.90;2.95;;;16.10;68.30;;;;;;4992093;28;20023;-69
2022/04/19 09:47:12;;;;;;;61.78;5.28;;;15.90;70.20;;;;;;4992500;28;20022;-69
2022/04/19 09:49:51;;;;;;;26.27;3.55;;;16.20;71.60;;;;;;4974903;28;20023;-69
2022/04/19 09:52:22;;;;;;;14.50;1.75;;;16.10;67.70;;;;;;4992388;28;20030;-73
2022/04/19 09:55:08;;;;;;;16.77;2.28;;;15.70;67.50;;;;;;4978044;28;20018;-74
2022/04/19 09:57:36;;;;;;;26.30;2.28;;;15.40;69.60;;;;;;4996366;28;20034;-70
2022/04/19 10:00:09;;;;;;;56.10;5.15;;;15.40;69.40;;;;;;4997051;28;20022;-80
2022/04/19 10:08:19;;;;;;;54.08;5.75;;;15.40;68.90;;;;;;4977154;28;20030;-82
2022/04/19 10:10:47;;;;;;;50.95;5.18;;;15.20;69.20;;;;;;4976846;28;20023;-82
2022/04/19 10:13:13;;;;;;;25.83;3.33;;;15.10;69.40;;;;;;4977053;28;20050;-82
2022/04/19 10:15:40;;;;;;;20.75;2.83;;;15.00;69.80;;;;;;4976947;28;20047;-83
2022/04/19 10:18:07;;;;;;;11.57;1.60;;;15.00;69.40;;;;;;4976669;28;20054;-82
2022/04/19 10:20:45;;;;;;;13.18;1.70;;;14.80;69.10;;;;;;4959121;28;20394;-82
2022/04/19 10:23:11;;;;;;;30.30;3.40;;;14.70;69.10;;;;;;4976721;28;20062;-81
2022/04/19 10:25:43;;;;;;;107.38;5.53;;;14.60;69.80;;;;;;4976378;28;20030;-81
2022/04/19 10:28:25;;;;;;;10.95;2.03;;;14.50;69.70;;;;;;4976849;28;20482;-80
2022/04/19 10:30:52;;;;;;;24.45;2.58;;;14.50;69.50;;;;;;4976388;28;20027;-81
2022/04/19 10:33:37;;;;;;;22.42;2.70;;;14.30;69.60;;;;;;4988057;28;20172;-79
2022/04/19 10:36:18;;;;;;;18.55;2.22;;;14.30;69.90;;;;;;4995469;28;20022;-81
2022/04/19 10:38:46;;;;;;;23.33;2.95;;;14.20;70.20;;;;;;4976829;28;20150;-79
2022/04/19 10:41:31;;;;;;;19.55;2.67;;;14.10;70.10;;;;;;4976033;28;20490;-80
2022/04/19 10:44:23;;;;;;;20.58;2.67;;;14.10;70.50;;;;;;4958735;28;20030;-79
2022/04/19 10:47:05;;;;;;;50.67;4.95;;;14.10;70.60;;;;;;4976268;28;20197;-79
2022/04/19 10:49:35;;;;;;;33.67;2.85;;;14.20;70.80;;;;;;4975916;28;20019;-79
2022/04/19 10:52:39;;;;;;;49.85;4.22;;;14.20;71.20;;;;;;4976345;28;20031;-79
2022/04/19 10:55:19;;;;;;;45.90;3.80;;;14.20;71.60;;;;;;4975952;28;20023;-80
2022/04/19 11:00:37;;;;;;;15.50;2.70;;;14.30;70.90;;;;;;4975825;28;20062;-78
2022/04/19 11:03:10;;;;;;;31.48;3.42;;;14.20;71.40;;;;;;4975837;28;20508;-78
2022/04/19 11:05:43;;;;;;;14.90;2.55;;;14.20;71.40;;;;;;4975371;28;20520;-79
2022/04/19 11:08:29;;;;;;;23.92;2.60;;;14.30;71.70;;;;;;4975806;28;20493;-79
2022/04/19 11:11:06;;;;;;;15.95;2.03;;;14.20;71.00;;;;;;4975605;28;20069;-75
2022/04/19 11:13:36;;;;;;;23.33;3.28;;;14.30;72.10;;;;;;4966966;28;20501;-79
2022/04/19 11:16:22;;;;;;;22.98;3.40;;;14.40;72.10;;;;;;4975743;28;20073;-78
2022/04/19 11:18:48;;;;;;;35.42;3.85;;;14.40;72.10;;;;;;4975729;28;20069;-78
2022/04/19 11:21:15;;;;;;;24.65;3.15;;;14.30;70.90;;;;;;4975647;28;20070;-78
2022/04/19 11:23:43;;;;;;;33.47;4.00;;;14.10;71.50;;;;;;4971662;28;20030;-78
2022/04/19 11:26:33;;;;;;;49.03;4.43;;;14.10;72.30;;;;;;4975342;28;20019;-79
2022/04/19 11:29:08;;;;;;;;;;;14.30;74.00;;;;;;4975814;28;20077;-82
2022/04/19 11:31:34;;;;;;;38.88;3.75;;;14.50;74.10;;;;;;4957890;28;20359;-79
2022/04/19 11:34:00;;;;;;;13.20;2.83;;;14.50;72.50;;;;;;4975254;28;20422;-78
2022/04/19 11:36:26;;;;;;;14.50;2.25;;;14.60;73.40;;;;;;4975001;28;20027;-77
2022/04/19 11:38:53;;;;;;;33.65;4.45;;;14.70;71.60;;;;;;4957850;28;20085;-78
2022/04/19 11:46:58;;;;;;;23.02;2.80;;;14.90;70.70;;;;;;4936985;29;20034;-83
2022/04/19 11:49:28;;;;;;;26.63;2.75;;;14.70;70.70;;;;;;4951259;29;20410;-83
2022/04/19 11:51:59;;;;;;;30.50;3.28;;;14.70;71.90;;;;;;4955726;29;20024;-81
2022/04/19 11:54:32;;;;;;;19.85;2.45;;;14.70;71.20;;;;;;4959493;28;20026;-79
2022/04/19 11:57:03;;;;;;;84.93;6.35;;;14.80;72.30;;;;;;4974735;28;20560;-71
2022/04/19 11:59:35;;;;;;;44.42;3.75;;;14.90;72.80;;;;;;4974561;28;20038;-71
2022/04/19 12:02:03;;;;;;;44.50;4.05;;;15.30;70.40;;;;;;4974462;28;20042;-71
2022/04/19 12:04:29;;;;;;;33.92;2.83;;;15.10;68.90;;;;;;4974417;28;20030;-71
2022/04/19 12:07:02;;;;;;;20.08;3.60;;;14.90;69.30;;;;;;4974608;28;20030;-72
2022/04/19 12:09:30;;;;;;;25.52;3.75;;;14.70;69.90;;;;;;4957075;28;20023;-71
2022/04/19 12:11:57;;;;;;;16.98;2.97;;;14.60;69.80;;;;;;4974543;28;20086;-71
2022/04/19 12:14:30;;;;;;;23.90;2.35;;;14.50;70.30;;;;;;4974032;28;20509;-71
2022/04/19 12:17:02;;;;;;;17.42;2.70;;;14.40;70.30;;;;;;4973384;28;20081;-71
2022/04/19 12:19:38;;;;;;;24.95;3.35;;;14.40;70.70;;;;;;4974460;28;20027;-71
2022/04/19 12:22:21;;;;;;;25.80;2.85;;;14.30;71.00;;;;;;4974336;28;20074;-71
2022/04/19 12:24:58;;;;;;;28.35;3.22;;;14.30;70.90;;;;;;4974427;28;20162;-71
2022/04/19 12:27:28;;;;;;;27.23;3.35;;;14.20;70.70;;;;;;4974450;28;20039;-70
2022/04/19 12:30:08;;;;;;;23.83;3.22;;;14.20;70.70;;;;;;4974159;28;20606;-72
2022/04/19 12:32:54;;;;;;;9.50;2.13;;;14.40;72.10;;;;;;4973020;28;20166;-71
2022/04/19 12:35:26;;;;;;;9.32;2.10;;;14.30;69.80;;;;;;4969596;28;20034;-71
2022/04/19 12:38:16;;;;;;;31.60;2.67;;;14.00;70.50;;;;;;4973947;28;20134;-71
2022/04/19 12:40:46;;;;;;;39.75;3.65;;;14.00;72.00;;;;;;4974615;28;20038;-70
2022/04/19 12:43:14;;;;;;;22.48;2.95;;;14.00;71.90;;;;;;4957444;28;20062;-70
2022/04/19 12:45:41;;;;;;;16.15;2.15;;;13.90;71.40;;;;;;4972632;28;20030;-70
2022/04/19 12:48:20;;;;;;;39.13;4.70;;;13.80;71.60;;;;;;4955350;28;20035;-70
2022/04/19 12:50:46;;;;;;;20.38;2.13;;;13.80;72.00;;;;;;4954340;29;20027;-70
2022/04/19 12:53:25;;;;;;;26.05;4.47;;;13.80;72.20;;;;;;4954545;29;20068;-70
2022/04/19 12:55:51;;;;;;;33.60;4.07;;;13.80;72.50;;;;;;4954313;29;20560;-70
2022/04/19 12:58:19;;;;;;;34.00;3.75;;;13.80;72.60;;;;;;4954465;29;20031;-70
2022/04/19 13:00:45;;;;;;;20.48;3.05;;;13.90;72.80;;;;;;4954113;29;20023;-71
2022/04/19 13:03:10;;;;;;;20.13;2.83;;;13.90;72.80;;;;;;4954409;29;20042;-71
2022/04/19 13:13:48;;;;;;;24.98;4.20;;;13.90;72.70;;;;;;4954315;29;20082;-71
2022/04/19 13:16:14;;;;;;;40.58;4.00;;;13.90;72.90;;;;;;4954098;29;20032;-71
2022/04/19 13:18:40;;;;;;;23.60;3.05;;;13.90;73.20;;;;;;4954070;29;20066;-71
2022/04/19 13:21:07;;;;;;;56.50;5.28;;;13.90;73.40;;;;;;4954343;29;20057;-70
2022/04/19 13:23:32;;;;;;;30.25;3.38;;;13.90;73.40;;;;;;4954231;29;20039;-71
2022/04/19 13:25:58;;;;;;;48.20;3.30;;;13.90;73.30;;;;;;4954130;29;20027;-70
2022/04/19 13:28:26;;;;;;;40.90;3.13;;;13.90;73.10;;;;;;4958227;28;20031;-71
2022/04/19 13:30:55;;;;;;;19.05;2.75;;;13.90;72.90;;;;;;4973441;28;20042;-71
2022/04/19 13:33:20;;;;;;;59.13;4.60;;;13.80;72.90;;;;;;4973398;28;20042;-71
2022/04/19 13:35:46;;;;;;;28.90;3.55;;;13.70;73.50;;;;;;4973135;28;20026;-71
2022/04/19 13:38:24;;;;;;;43.45;2.50;;;13.70;74.00;;;;;;4973067;28;20145;-71
2022/04/19 13:40:51;;;;;;;27.30;3.67;;;13.70;74.20;;;;;;4973064;28;20501;-71
2022/04/19 13:43:16;;;;;;;15.20;2.40;;;13.70;73.80;;;;;;4973114;28;20062;-71
2022/04/19 13:45:43;;;;;;;23.38;2.47;;;13.70;73.90;;;;;;4955640;28;20059;-71
2022/04/19 13:48:08;;;;;;;44.78;3.22;;;13.70;73.80;;;;;;4972558;28;20089;-70
2022/04/19 13:50:35;;;;;;;9.15;1.83;;;13.70;74.30;;;;;;4972749;28;20027;-70
2022/04/19 13:53:04;;;;;;;174.18;10.52;;;13.70;74.20;;;;;;4972942;28;20038;-71
2022/04/19 13:55:29;;;;;;;20.10;2.55;;;13.80;74.60;;;;;;4971298;28;20070;-70
2022/04/19 13:57:55;;;;;;;23.08;2.70;;;13.80;74.40;;;;;;4954220;28;20063;-71
2022/04/19 14:00:24;;;;;;;16.25;2.13;;;13.70;74.20;;;;;;4952951;29;20027;-75
2022/04/19 14:02:50;;;;;;;37.85;2.90;;;13.80;74.10;;;;;;4952599;29;20059;-70
2022/04/19 14:05:16;;;;;;;69.72;4.78;;;13.70;74.30;;;;;;4953273;29;20482;-71
2022/04/19 14:07:42;;;;;;;96.97;6.35;;;13.70;74.40;;;;;;4952782;29;20495;-71
2022/04/19 14:10:09;;;;;;;32.40;2.78;;;13.70;74.20;;;;;;4953245;29;20379;-71
2022/04/19 14:12:35;;;;;;;58.97;4.10;;;13.70;74.30;;;;;;4958366;28;20019;-71
2022/04/19 14:15:01;;;;;;;14.50;2.00;;;13.70;74.40;;;;;;4953204;29;20035;-71
2022/04/19 14:17:27;;;;;;;42.20;2.42;;;13.70;74.50;;;;;;4953079;29;20026;-69
2022/04/19 14:19:53;;;;;;;26.02;2.40;;;13.80;78.50;;;;;;4955692;28;20027;-70
2022/04/19 14:22:19;;;;;;;76.07;4.28;;;14.20;74.70;;;;;;4953634;29;20394;-70
2022/04/19 14:24:45;;;;;;;52.50;3.67;;;14.10;73.90;;;;;;4936066;29;20034;-70
2022/04/19 14:27:10;;;;;;;37.05;3.50;;;14.00;73.90;;;;;;4956583;28;20035;-70
2022/04/19 14:35:05;;;;;;;19.98;2.10;;;13.90;74.60;;;;;;4955172;28;20554;-69
2022/04/19 14:37:31;;;;;;;21.92;2.47;;;13.90;74.30;;;;;;4952348;28;20492;-69
2022/04/19 14:40:00;;;;;;;17.27;2.53;;;13.90;75.20;;;;;;4952956;28;20094;-72
2022/04/19 14:42:29;;;;;;;14.45;2.25;;;14.90;78.90;;;;;;4956371;29;20031;-72